Time;durP1;ratioP1;P1;durP2;ratioP2;P2;SDS_P1;SDS_P2;PMS_P1;PMS_P2;Temp;Humidity;BMP_temperature;BMP_pressure;BME280_temperature;BME280_humidity;BME280_pressure;Samples;Min_cycle;Max_cycle;Signal;HPM_P1;HPM_P2
2021/11/13 00:01:59;;;;;;;;;;;3.70;99.90;;;;;;5020941;28;19911;-87
2021/11/13 00:04:24;;;;;;;;;;;3.80;99.90;;;;;;5020946;28;19912;-86
2021/11/13 00:06:50;;;;;;;;;;;3.90;99.90;;;;;;5020341;28;19905;-86
2021/11/13 00:09:16;;;;;;;;;;;4.10;99.90;;;;;;5033508;28;19955;-86
2021/11/13 00:11:42;;;;;;;;;;;4.20;99.90;;;;;;5033031;28;19912;-86
2021/11/13 00:14:13;;;;;;;;;;;4.40;99.90;;;;;;5023202;28;20335;-87
2021/11/13 00:16:38;;;;;;;;;;;4.70;99.90;;;;;;5039490;28;19967;-86
2021/11/13 00:19:04;;;;;;;;;;;4.60;99.90;;;;;;5021401;28;20353;-86
2021/11/13 00:21:30;;;;;;;;;;;4.60;99.90;;;;;;5020563;28;20333;-87
2021/11/13 00:23:56;;;;;;;;;;;4.60;99.90;;;;;;5025395;28;19905;-87
2021/11/13 00:26:22;;;;;;;;;;;4.30;99.90;;;;;;5020315;28;19905;-86
2021/11/13 00:28:48;;;;;;;;;;;4.30;99.90;;;;;;5037706;28;19912;-87
2021/11/13 00:31:14;;;;;;;;;;;4.00;99.90;;;;;;5019836;28;19928;-87
2021/11/13 00:33:39;;;;;;;;;;;4.10;99.90;;;;;;5038096;28;19905;-87
2021/11/13 00:36:05;;;;;;;;;;;4.00;99.90;;;;;;5019923;28;19909;-87
2021/11/13 00:38:30;;;;;;;;;;;3.80;99.90;;;;;;5020071;28;19905;-87
2021/11/13 00:40:56;;;;;;;;;;;3.70;99.90;;;;;;5019941;28;20376;-86
2021/11/13 00:43:22;;;;;;;;;;;3.80;99.90;;;;;;5020084;28;20354;-86
2021/11/13 00:45:48;;;;;;;;;;;3.50;99.90;;;;;;5019614;28;19936;-86
2021/11/13 00:48:14;;;;;;;;;;;3.50;99.90;;;;;;5019857;28;19916;-87
2021/11/13 00:50:40;;;;;;;;;;;3.50;99.90;;;;;;5020643;28;20344;-87
2021/11/13 00:53:06;;;;;;;;;;;3.50;99.90;;;;;;5020111;28;19913;-87
2021/11/13 00:55:32;;;;;;;;;;;3.50;99.90;;;;;;5019647;28;20353;-87
2021/11/13 00:57:58;;;;;;;;;;;3.50;99.90;;;;;;5037602;28;19916;-87
2021/11/13 01:00:24;;;;;;;;;;;3.70;99.90;;;;;;5019270;28;19905;-87
2021/11/13 01:02:50;;;;;;;;;;;3.80;99.90;;;;;;5018842;28;19949;-86
2021/11/13 01:05:16;;;;;;;;;;;3.80;99.90;;;;;;5019655;28;19905;-87
2021/11/13 01:07:42;;;;;;;;;;;3.90;99.90;;;;;;5019801;28;19959;-86
2021/11/13 01:10:08;;;;;;;;;;;4.10;99.90;;;;;;5019232;28;19905;-87
2021/11/13 01:12:34;;;;;;;;;;;3.80;99.90;;;;;;5019418;28;19928;-87
2021/11/13 01:15:00;;;;;;;;;;;3.70;99.90;;;;;;5019392;28;19913;-86
2021/11/13 01:17:25;;;;;;;;;;;3.60;99.90;;;;;;5018621;28;19905;-86
2021/11/13 01:19:51;;;;;;;;;;;3.60;99.90;;;;;;5036932;28;19955;-87
2021/11/13 01:22:17;;;;;;;;;;;3.60;99.90;;;;;;5036764;28;19924;-87
2021/11/13 01:24:43;;;;;;;;;;;3.70;99.90;;;;;;5019236;28;19905;-86
2021/11/13 01:27:08;;;;;;;;;;;3.60;99.90;;;;;;5018998;28;19956;-86
2021/11/13 01:29:34;;;;;;;;;;;3.60;99.90;;;;;;5018927;28;19943;-87
2021/11/13 01:32:00;;;;;;;;;;;3.60;99.90;;;;;;5036729;28;19955;-87
2021/11/13 01:34:25;;;;;;;;;;;3.60;99.90;;;;;;5035816;28;20016;-86
2021/11/13 01:36:51;;;;;;;;;;;3.50;99.90;;;;;;5018771;28;20439;-86
2021/11/13 01:39:17;;;;;;;;;;;3.60;99.90;;;;;;5018923;28;19928;-86
2021/11/13 01:41:42;;;;;;;;;;;3.80;99.90;;;;;;5018913;28;19905;-86
2021/11/13 01:44:09;;;;;;;;;;;3.70;99.90;;;;;;5018811;28;19905;-87
2021/11/13 01:46:35;;;;;;;;;;;3.60;99.90;;;;;;5018188;28;19915;-86
2021/11/13 01:49:01;;;;;;;;;;;3.60;99.90;;;;;;5018123;28;19905;-87
2021/11/13 01:51:28;;;;;;;;;;;3.50;99.90;;;;;;5036128;28;19928;-87
2021/11/13 01:53:56;;;;;;;;;;;3.60;99.90;;;;;;5018561;28;19905;-87
2021/11/13 01:56:22;;;;;;;;;;;3.60;99.90;;;;;;5018351;28;19931;-87
2021/11/13 01:58:49;;;;;;;;;;;3.50;99.90;;;;;;5018349;28;19905;-87
2021/11/13 02:01:15;;;;;;;;;;;3.50;99.90;;;;;;5018270;28;19912;-86
2021/11/13 02:03:43;;;;;;;;;;;3.40;99.90;;;;;;5018527;28;19905;-86
2021/11/13 02:06:09;;;;;;;;;;;3.40;99.90;;;;;;5018176;28;20010;-87
2021/11/13 02:08:34;;;;;;;;;;;3.30;99.90;;;;;;5017791;28;19905;-86
2021/11/13 02:11:00;;;;;;;;;;;3.40;99.90;;;;;;5036022;28;19909;-86
2021/11/13 02:13:26;;;;;;;;;;;3.40;99.90;;;;;;5035935;28;19905;-86
2021/11/13 02:15:52;;;;;;;;;;;3.50;99.90;;;;;;5017663;28;19909;-87
2021/11/13 02:18:17;;;;;;;;;;;3.30;99.90;;;;;;5017657;28;20411;-86
2021/11/13 02:20:43;;;;;;;;;;;3.80;99.90;;;;;;5022946;28;19983;-86
2021/11/13 02:23:16;;;;;;;;;;;4.20;99.90;;;;;;5043308;28;19913;-87
2021/11/13 02:25:43;;;;;;;;;;;3.80;99.90;;;;;;5019919;28;19905;-87
2021/11/13 02:28:10;;;;;;;;;;;3.70;99.90;;;;;;5036384;28;19916;-87
2021/11/13 02:30:36;;;;;;;;;;;3.70;99.90;;;;;;5035910;28;19905;-87
2021/11/13 02:33:02;;;;;;;;;;;3.50;99.90;;;;;;5036032;28;19916;-86
2021/11/13 02:35:31;;;;;;;;;;;3.60;99.90;;;;;;5017913;28;20333;-86
2021/11/13 02:37:56;;;;;;;;;;;3.60;99.90;;;;;;5018508;28;19905;-87
2021/11/13 02:40:22;;;;;;;;;;;3.30;99.90;;;;;;5017787;28;19911;-87
2021/11/13 02:42:48;;;;;;;;;;;3.40;99.90;;;;;;5017757;28;19912;-87
2021/11/13 02:45:15;;;;;;;;;;;3.30;99.90;;;;;;5017828;28;20281;-86
2021/11/13 02:47:45;;;;;;;;;;;3.30;99.90;;;;;;5017790;28;19909;-87
2021/11/13 02:50:11;;;;;;;;;;;3.30;99.90;;;;;;5034823;28;19905;-86
2021/11/13 02:52:41;;;;;;;;;;;3.20;99.90;;;;;;5017424;28;19954;-87
2021/11/13 02:55:07;;;;;;;;;;;3.40;99.90;;;;;;5017847;28;19976;-86
2021/11/13 02:57:32;;;;;;;;;;;3.50;99.90;;;;;;5017555;28;20329;-86
2021/11/13 02:59:58;;;;;;;;;;;3.40;99.90;;;;;;5037588;28;19905;-87
2021/11/13 03:02:23;;;;;;;;;;;3.50;99.90;;;;;;5021796;28;19905;-87
2021/11/13 03:04:49;;;;;;;;;;;3.50;99.90;;;;;;5039518;28;19968;-87
2021/11/13 03:07:14;;;;;;;;;;;3.20;99.90;;;;;;5022254;28;19916;-86
2021/11/13 03:09:40;;;;;;;;;;;3.10;99.90;;;;;;5021521;28;20342;-87
2021/11/13 03:12:06;;;;;;;;;;;2.90;99.90;;;;;;5022498;28;20007;-87
2021/11/13 03:14:31;;;;;;;;;;;3.00;99.90;;;;;;5021220;28;20313;-86
2021/11/13 03:17:01;;;;;;;;;;;3.10;99.90;;;;;;5021883;28;19905;-86
2021/11/13 03:19:26;;;;;;;;;;;3.20;99.90;;;;;;5039144;28;20356;-87
2021/11/13 03:21:52;;;;;;;;;;;3.00;99.90;;;;;;5021164;28;19924;-87
2021/11/13 03:24:18;;;;;;;;;;;3.00;99.90;;;;;;5021558;28;19905;-86
2021/11/13 03:26:43;;;;;;;;;;;3.40;99.90;;;;;;5021125;28;19905;-86
2021/11/13 03:29:11;;;;;;;;;;;3.50;99.90;;;;;;5039006;28;20000;-87
2021/11/13 03:31:37;;;;;;;;;;;4.00;99.90;;;;;;5020711;28;19905;-87
2021/11/13 03:34:02;;;;;;;;;;;3.70;99.90;;;;;;5020726;28;20003;-87
2021/11/13 03:36:28;;;;;;;;;;;3.50;99.90;;;;;;5038889;28;19913;-87
2021/11/13 03:38:54;;;;;;;;;;;3.20;99.90;;;;;;5038617;28;20283;-86
2021/11/13 03:41:20;;;;;;;;;;;3.10;99.90;;;;;;5021035;28;19912;-87
2021/11/13 03:43:46;;;;;;;;;;;3.20;99.90;;;;;;5038875;28;20436;-87
2021/11/13 03:46:12;;;;;;;;;;;3.20;99.90;;;;;;5021183;28;19905;-87
2021/11/13 03:48:38;;;;;;;;;;;3.20;99.90;;;;;;5020321;28;20283;-87
2021/11/13 03:51:04;;;;;;;;;;;3.10;99.90;;;;;;5021160;28;19905;-87
2021/11/13 03:53:30;;;;;;;;;;;3.20;99.90;;;;;;5020801;28;19905;-87
2021/11/13 03:55:56;;;;;;;;;;;3.50;99.90;;;;;;5020771;28;19967;-86
2021/11/13 03:58:22;;;;;;;;;;;4.00;99.90;;;;;;5020705;28;19920;-87
2021/11/13 04:00:47;;;;;;;;;;;3.90;99.90;;;;;;5020688;28;20361;-87
2021/11/13 04:03:13;;;;;;;;;;;3.90;99.90;;;;;;5020700;28;19940;-87
2021/11/13 04:05:39;;;;;;;;;;;3.80;99.90;;;;;;5037601;28;19909;-87
2021/11/13 04:08:05;;;;;;;;;;;3.80;99.90;;;;;;5020848;28;19905;-87
2021/11/13 04:10:30;;;;;;;;;;;3.80;99.90;;;;;;5019950;28;20353;-86
2021/11/13 04:12:56;;;;;;;;;;;3.80;99.90;;;;;;5020626;28;20403;-87
2021/11/13 04:15:22;;;;;;;;;;;3.80;99.90;;;;;;5037996;28;19893;-87
2021/11/13 04:17:49;;;;;;;;;;;3.60;99.90;;;;;;5020506;28;19905;-87
2021/11/13 04:20:15;;;;;;;;;;;3.50;99.90;;;;;;5019896;28;19967;-87
2021/11/13 04:22:41;;;;;;;;;;;3.40;99.90;;;;;;5016928;28;19917;-88
2021/11/13 04:25:07;;;;;;;;;;;3.20;99.90;;;;;;5016953;28;19909;-87
2021/11/13 04:27:33;;;;;;;;;;;3.30;99.90;;;;;;5018157;28;20254;-87
2021/11/13 04:29:58;;;;;;;;;;;3.30;99.90;;;;;;5016720;28;19936;-87
2021/11/13 04:32:29;;;;;;;;;;;3.40;99.90;;;;;;5019896;28;19927;-86
2021/11/13 04:37:23;;;;;;;;;;;3.50;99.90;;;;;;5022996;28;19959;-87
2021/11/13 04:39:49;;;;;;;;;;;3.60;99.90;;;;;;5018642;28;20004;-87
2021/11/13 04:42:16;;;;;;;;;;;3.60;99.90;;;;;;5016966;28;20012;-87
2021/11/13 04:44:42;;;;;;;;;;;3.60;99.90;;;;;;5016777;28;20377;-87
2021/11/13 04:47:08;;;;;;;;;;;3.70;99.90;;;;;;5017028;28;19912;-87
2021/11/13 04:49:34;;;;;;;;;;;3.70;99.90;;;;;;5016656;28;19909;-87
2021/11/13 04:52:01;;;;;;;;;;;3.70;99.90;;;;;;5016965;28;19905;-87
2021/11/13 04:54:27;;;;;;;;;;;3.60;99.90;;;;;;5017101;28;19910;-86
2021/11/13 04:56:53;;;;;;;;;;;4.00;99.90;;;;;;5017050;28;20439;-87
2021/11/13 04:59:19;;;;;;;;;;;3.90;99.90;;;;;;5018884;28;20354;-87
2021/11/13 05:01:45;;;;;;;;;;;3.90;99.90;;;;;;5017892;28;19912;-87
2021/11/13 05:04:11;;;;;;;;;;;3.80;99.90;;;;;;5017132;28;20366;-87
2021/11/13 05:06:36;;;;;;;;;;;3.70;99.90;;;;;;5016486;28;19905;-87
2021/11/13 05:09:02;;;;;;;;;;;3.70;99.90;;;;;;5016345;28;19909;-87
2021/11/13 05:11:27;;;;;;;;;;;3.60;99.90;;;;;;5015390;28;19975;-87
2021/11/13 05:13:53;;;;;;;;;;;3.70;99.90;;;;;;5016070;28;20377;-87
2021/11/13 05:16:19;;;;;;;;;;;3.80;99.90;;;;;;5016936;28;19983;-87
2021/11/13 05:18:44;;;;;;;;;;;3.90;99.90;;;;;;5016356;28;19905;-87
2021/11/13 05:21:10;;;;;;;;;;;3.80;99.90;;;;;;5015647;28;20293;-87
2021/11/13 05:23:36;;;;;;;;;;;3.80;99.90;;;;;;5016266;28;19905;-87
2021/11/13 05:26:02;;;;;;;;;;;3.70;99.90;;;;;;5015442;28;19906;-87
2021/11/13 05:28:28;;;;;;;;;;;3.70;99.90;;;;;;5016523;28;19913;-87
2021/11/13 05:30:54;;;;;;;;;;;3.60;99.90;;;;;;5015706;28;20277;-87
2021/11/13 05:33:20;;;;;;;;;;;3.70;99.90;;;;;;5015998;28;20000;-86
2021/11/13 05:35:45;;;;;;;;;;;3.80;99.90;;;;;;5016919;28;19959;-87
2021/11/13 05:38:11;;;;;;;;;;;3.90;99.90;;;;;;5015771;28;19912;-87
2021/11/13 05:40:37;;;;;;;;;;;3.90;99.90;;;;;;5015659;28;19959;-87
2021/11/13 05:43:02;;;;;;;;;;;3.90;99.90;;;;;;5014880;28;20357;-87
2021/11/13 05:45:28;;;;;;;;;;;3.80;99.90;;;;;;5015990;28;19909;-87
2021/11/13 05:47:54;;;;;;;;;;;3.90;99.90;;;;;;5016799;28;20008;-87
2021/11/13 05:50:21;;;;;;;;;;;4.00;99.90;;;;;;5015514;28;20024;-87
2021/11/13 05:52:48;;;;;;;;;;;4.00;99.90;;;;;;5015210;28;20285;-87
2021/11/13 05:55:14;;;;;;;;;;;4.00;99.90;;;;;;5015285;28;20384;-87
2021/11/13 05:57:40;;;;;;;;;;;3.90;99.90;;;;;;5015176;28;19963;-87
2021/11/13 06:00:07;;;;;;;;;;;3.90;99.90;;;;;;5014298;28;19905;-87
2021/11/13 06:02:32;;;;;;;;;;;4.00;99.90;;;;;;5014993;28;19928;-87
2021/11/13 06:04:58;;;;;;;;;;;3.90;99.90;;;;;;5015148;28;19905;-87
2021/11/13 06:07:23;;;;;;;;;;;3.80;99.90;;;;;;5016409;28;19992;-87
2021/11/13 06:09:49;;;;;;;;;;;4.00;99.90;;;;;;5015497;28;19905;-87
2021/11/13 06:12:15;;;;;;;;;;;3.90;99.90;;;;;;5016464;28;20012;-87
2021/11/13 06:14:40;;;;;;;;;;;4.00;99.90;;;;;;5015700;28;19906;-87
2021/11/13 06:17:06;;;;;;;;;;;4.20;99.90;;;;;;5015172;28;19905;-87
2021/11/13 06:19:31;;;;;;;;;;;4.10;99.90;;;;;;5015250;28;19909;-87
2021/11/13 06:21:57;;;;;;;;;;;4.40;99.90;;;;;;5029093;28;19917;-87
2021/11/13 06:24:22;;;;;;;;;;;4.40;99.90;;;;;;5035896;28;19905;-86
2021/11/13 06:26:48;;;;;;;;;;;4.20;99.90;;;;;;5036147;28;19988;-86
2021/11/13 06:29:14;;;;;;;;;;;4.20;99.90;;;;;;5018035;28;19912;-86
2021/11/13 06:31:40;;;;;;;;;;;4.40;99.90;;;;;;5017379;28;19927;-86
2021/11/13 06:34:06;;;;;;;;;;;4.60;99.90;;;;;;5018007;28;20018;-87
2021/11/13 06:36:31;;;;;;;;;;;4.80;99.90;;;;;;5017985;28;19909;-86
2021/11/13 06:38:57;;;;;;;;;;;4.80;99.90;;;;;;5017891;28;19991;-86
2021/11/13 06:41:26;;;;;;;;;;;4.70;99.90;;;;;;5019527;28;19928;-86
2021/11/13 06:43:52;;;;;;;;;;;4.70;99.90;;;;;;5019666;28;19951;-86
2021/11/13 06:46:18;;;;;;;;;;;4.50;99.90;;;;;;5031031;28;19905;-85
2021/11/13 06:48:43;;;;;;;;;;;4.50;99.90;;;;;;5049558;28;19913;-86
2021/11/13 06:51:09;;;;;;;;;;;4.50;99.90;;;;;;5020884;28;19920;-87
2021/11/13 06:53:35;;;;;;;;;;;4.40;99.90;;;;;;5018911;28;19905;-86
2021/11/13 06:56:00;;;;;;;;;;;4.40;99.90;;;;;;5018258;28;19957;-86
2021/11/13 06:58:26;;;;;;;;;;;4.40;99.90;;;;;;5019571;28;19906;-86
2021/11/13 07:00:51;;;;;;;;;;;4.50;99.90;;;;;;5019152;28;19996;-86
2021/11/13 07:03:17;;;;;;;;;;;4.60;99.90;;;;;;5019070;28;19904;-86
2021/11/13 07:05:43;;;;;;;;;;;4.50;99.90;;;;;;5019288;28;19905;-86
2021/11/13 07:08:09;;;;;;;;;;;4.50;99.90;;;;;;5019089;28;19999;-86
2021/11/13 07:10:34;;;;;;;;;;;4.50;99.90;;;;;;5019618;28;20319;-86
2021/11/13 07:13:00;;;;;;;;;;;4.60;99.90;;;;;;5018850;28;19905;-86
2021/11/13 07:15:31;;;;;;;;;;;4.70;99.90;;;;;;5036918;28;19916;-86
2021/11/13 07:17:57;;;;;;;;;;;5.00;99.90;;;;;;5018978;28;19928;-86
2021/11/13 07:20:23;;;;;;;;;;;5.10;99.90;;;;;;5018335;28;19905;-85
2021/11/13 07:22:49;;;;;;;;;;;5.10;99.90;;;;;;5018116;28;19916;-86
2021/11/13 07:25:16;;;;;;;;;;;5.10;99.90;;;;;;5036292;28;19913;-86
2021/11/13 07:27:45;;;;;;;;;;;5.30;99.90;;;;;;5036180;28;19912;-86
2021/11/13 07:30:12;;;;;;;;;;;5.20;99.90;;;;;;5018211;28;20335;-85
2021/11/13 07:32:38;;;;;;;;;;;5.30;99.90;;;;;;5035552;28;19933;-86
2021/11/13 07:35:04;;;;;;;;;;;5.50;99.90;;;;;;5018283;28;19920;-86
2021/11/13 07:37:30;;;;;;;;;;;5.50;99.90;;;;;;5017325;28;19916;-86
2021/11/13 07:39:55;;;;;;;;;;;5.50;99.90;;;;;;5018282;28;19905;-86
2021/11/13 07:42:21;;;;;;;;;;;5.60;99.90;;;;;;5017892;28;19912;-85
2021/11/13 07:44:47;;;;;;;;;;;5.70;99.90;;;;;;5035846;28;20288;-86
2021/11/13 07:47:13;;;;;;;;;;;5.80;99.90;;;;;;5020720;28;19912;-86
2021/11/13 07:49:38;;;;;;;;;;;5.80;99.90;;;;;;5020653;28;19972;-86
2021/11/13 07:52:04;;;;;;;;;;;5.80;99.90;;;;;;5021469;28;19999;-86
2021/11/13 07:54:30;;;;;;;;;;;5.80;99.90;;;;;;5020279;28;19905;-86
2021/11/13 07:56:56;;;;;;;;;;;5.80;99.90;;;;;;5021714;28;19973;-86
2021/11/13 07:59:21;;;;;;;;;;;5.90;99.90;;;;;;5021287;28;19955;-86
2021/11/13 08:01:47;;;;;;;;;;;5.90;99.90;;;;;;5021494;28;19905;-86
2021/11/13 08:04:12;;;;;;;;;;;6.00;99.90;;;;;;5020945;28;19929;-86
2021/11/13 08:06:38;;;;;;;;;;;6.40;99.90;;;;;;5020524;28;20357;-88
2021/11/13 08:09:04;;;;;;;;;;;6.70;99.90;;;;;;5019837;28;19999;-87
2021/11/13 08:11:29;;;;;;;;;;;6.60;99.90;;;;;;5038266;28;19908;-87
2021/11/13 08:13:55;;;;;;;;;;;6.40;99.90;;;;;;5020419;28;19905;-86
2021/11/13 08:16:21;;;;;;;;;;;6.40;99.90;;;;;;5020960;28;19960;-86
2021/11/13 08:18:46;;;;;;;;;;;6.40;99.90;;;;;;5020705;28;19909;-86
2021/11/13 08:21:12;;;;;;;;;;;6.40;99.90;;;;;;5020353;28;19917;-85
2021/11/13 08:23:38;;;;;;;;;;;6.50;99.90;;;;;;5020443;28;19905;-86
2021/11/13 08:26:04;;;;;;;;;;;6.70;99.90;;;;;;5020160;28;19905;-85
2021/11/13 08:28:30;;;;;;;;;;;6.60;99.90;;;;;;5019934;28;20008;-85
2021/11/13 08:30:56;;;;;;;;;;;6.70;99.90;;;;;;5020398;28;19911;-86
2021/11/13 08:33:21;;;;;;;;;;;6.70;99.90;;;;;;5037817;28;19912;-86
2021/11/13 08:35:48;;;;;;;;;;;6.60;99.90;;;;;;5020373;28;19893;-85
2021/11/13 08:38:17;;;;;;;;;;;6.60;99.90;;;;;;5020933;28;19912;-87
2021/11/13 08:40:43;;;;;;;;;;;6.60;99.90;;;;;;5020561;28;20395;-86
2021/11/13 08:43:09;;;;;;;;;;;6.70;99.90;;;;;;5037752;28;19999;-87
2021/11/13 08:45:35;;;;;;;;;;;6.90;99.90;;;;;;5020653;28;19913;-87
2021/11/13 08:48:01;;;;;;;;;;;6.90;99.90;;;;;;5020524;28;20357;-86
2021/11/13 08:50:28;;;;;;;;;;;6.70;99.90;;;;;;5020554;28;20319;-86
2021/11/13 08:52:55;;;;;;;;;;;6.70;99.90;;;;;;5020523;28;19940;-86
2021/11/13 08:55:22;;;;;;;;;;;6.60;99.90;;;;;;5020235;28;20327;-87
2021/11/13 08:57:47;;;;;;;;;;;6.60;99.90;;;;;;5034015;28;19916;-86
2021/11/13 09:00:19;;;;;;;;;;;6.90;99.90;;;;;;5040677;28;19901;-87
2021/11/13 09:02:45;;;;;;;;;;;7.20;99.90;;;;;;5026664;28;19990;-87
2021/11/13 09:05:11;;;;;;;;;;;7.40;99.90;;;;;;5022036;28;19905;-87
2021/11/13 09:07:36;;;;;;;;;;;7.70;99.90;;;;;;5020927;28;19955;-87
2021/11/13 09:10:03;;;;;;;;;;;7.90;99.90;;;;;;5020117;28;19920;-87
2021/11/13 09:12:31;;;;;;;;;;;8.30;99.90;;;;;;5020131;28;20302;-87
2021/11/13 09:14:58;;;;;;;;;;;8.70;99.90;;;;;;5019856;28;19909;-88
2021/11/13 09:17:24;;;;;;;;;;;9.40;99.90;;;;;;5036801;28;19908;-87
2021/11/13 09:19:50;;;;;;;;;;;9.70;99.90;;;;;;5019274;28;19991;-88
2021/11/13 09:22:16;;;;;;;;;;;9.70;99.90;;;;;;5019426;28;19917;-88
2021/11/13 09:24:42;;;;;;;;;;;9.90;99.90;;;;;;5019571;28;19927;-87
2021/11/13 09:27:07;;;;;;;;;;;10.10;99.90;;;;;;5018926;28;19912;-87
2021/11/13 09:29:33;;;;;;;;;;;10.40;99.90;;;;;;5036940;28;19991;-88
2021/11/13 09:31:59;;;;;;;;;;;10.40;99.90;;;;;;5018578;28;20352;-87
2021/11/13 09:34:24;;;;;;;;;;;10.40;99.90;;;;;;5019115;28;19931;-87
2021/11/13 09:36:50;;;;;;;;;;;10.10;99.90;;;;;;5018942;28;19913;-87
2021/11/13 09:39:16;;;;;;;;;;;9.80;99.90;;;;;;5018966;28;19912;-87
2021/11/13 09:41:42;;;;;;;;;;;9.50;99.90;;;;;;5019180;28;19909;-85
2021/11/13 09:44:08;;;;;;;;;;;9.30;99.90;;;;;;5018832;28;20039;-86
2021/11/13 09:46:33;;;;;;;;;;;9.20;99.90;;;;;;5018990;28;19908;-85
2021/11/13 09:48:59;;;;;;;;;;;9.10;99.90;;;;;;5018036;28;19981;-86
2021/11/13 09:51:25;;;;;;;;;;;9.00;99.90;;;;;;5036229;28;19913;-87
2021/11/13 09:53:51;;;;;;;;;;;8.90;99.90;;;;;;5019432;28;19948;-85
2021/11/13 09:56:17;;;;;;;;;;;8.90;99.90;;;;;;5018330;28;19909;-87
2021/11/13 09:58:42;;;;;;;;;;;8.80;99.90;;;;;;5018830;28;20408;-87
2021/11/13 10:01:08;;;;;;;;;;;8.80;99.90;;;;;;5018802;28;20007;-87
2021/11/13 10:03:34;;;;;;;;;;;8.90;99.90;;;;;;5017999;28;19913;-86
2021/11/13 10:06:01;;;;;;;;;;;8.90;99.90;;;;;;5018876;28;19909;-86
2021/11/13 10:08:27;;;;;;;;;;;9.00;99.90;;;;;;5018309;28;19909;-86
2021/11/13 10:11:07;;;;;;;;;;;9.10;99.90;;;;;;5018729;28;19927;-86
2021/11/13 10:13:32;;;;;;;;;;;9.10;99.90;;;;;;5035211;28;20052;-86
2021/11/13 10:16:00;;;;;;;;;;;9.10;99.90;;;;;;5016270;28;20030;-85
2021/11/13 10:18:28;;;;;;;;;;;9.20;99.90;;;;;;5016129;28;19905;-87
2021/11/13 10:20:56;;;;;;;;;;;9.20;99.90;;;;;;5016020;28;19913;-86
2021/11/13 10:23:25;;;;;;;;;;;9.20;99.90;;;;;;5016184;28;19912;-85
2021/11/13 10:26:03;;;;;;;;;;;9.00;99.90;;;;;;5016099;28;19905;-87
2021/11/13 10:28:29;;;;;;;;;;;9.10;99.90;;;;;;5016012;28;19968;-86
2021/11/13 10:31:06;;;;;;;;;;;9.00;99.90;;;;;;5016110;28;20280;-86
2021/11/13 10:33:32;;;;;;;;;;;9.00;99.90;;;;;;5016401;28;19913;-86
2021/11/13 10:35:58;;;;;;;;;;;9.00;99.90;;;;;;5033651;28;20384;-87
2021/11/13 10:38:23;;;;;;;;;;;8.90;99.90;;;;;;5015993;28;19913;-87
2021/11/13 10:40:58;;;;;;;;;;;8.90;99.90;;;;;;5015960;28;19909;-87
2021/11/13 10:43:34;;;;;;;;;;;8.90;99.90;;;;;;5015823;28;19905;-86
2021/11/13 10:46:05;;;;;;;;;;;8.80;99.90;;;;;;5015848;28;19959;-86
2021/11/13 10:48:33;;;;;;;;;;;8.70;99.90;;;;;;5033561;28;20324;-86
2021/11/13 10:51:06;;;;;;;;;;;8.70;99.90;;;;;;5033408;28;19911;-84
2021/11/13 10:53:33;;;;;;;;;;;8.70;99.90;;;;;;5015720;28;19995;-86
2021/11/13 10:56:01;;;;;;;;;;;8.70;99.90;;;;;;5015561;28;19915;-86
2021/11/13 10:58:28;;;;;;;;;;;8.80;99.90;;;;;;5033410;28;19972;-86
2021/11/13 11:00:54;;;;;;;;;;;8.70;99.90;;;;;;5015746;28;19912;-86
2021/11/13 11:03:20;;;;;;;;;;;8.80;99.90;;;;;;5016337;28;19990;-86
2021/11/13 11:05:46;;;;;;;;;;;8.70;99.90;;;;;;5016730;28;20312;-86
2021/11/13 11:08:26;;;;;;;;;;;8.70;99.90;;;;;;5020919;28;19940;-86
2021/11/13 11:10:51;;;;;;;;;;;8.70;99.90;;;;;;5050621;28;19914;-85
2021/11/13 11:13:37;;;;;;;;;;;8.70;99.90;;;;;;5046845;28;19971;-86
2021/11/13 11:16:02;;;;;;;;;;;8.70;99.90;;;;;;5017508;28;19909;-86
2021/11/13 11:18:48;;;;;;;;;;;8.60;99.90;;;;;;5016395;28;20376;-86
2021/11/13 11:21:13;;;;;;;;;;;8.60;99.90;;;;;;5015326;28;20412;-86
2021/11/13 11:23:39;;;;;;;;;;;8.60;99.90;;;;;;5016252;28;19909;-86
2021/11/13 11:26:14;;;;;;;;;;;8.70;99.90;;;;;;5016149;28;20365;-86
2021/11/13 11:28:59;;;;;;;;;;;8.60;99.90;;;;;;5016376;28;19916;-86
2021/11/13 11:31:44;;;;;;;;;;;8.60;99.90;;;;;;5016047;28;19912;-85
2021/11/13 11:34:21;;;;;;;;;;;8.60;99.90;;;;;;5015997;28;19960;-86
2021/11/13 11:36:47;;;;;;;;;;;8.60;99.90;;;;;;5015928;28;19941;-87
2021/11/13 11:39:14;;;;;;;;;;;8.60;99.90;;;;;;5015855;28;19912;-86
2021/11/13 11:41:39;;;;;;;;;;;8.60;99.90;;;;;;5015906;28;20020;-85
2021/11/13 11:44:05;;;;;;;;;;;8.60;99.90;;;;;;5017213;28;20358;-86
2021/11/13 11:46:32;;;;;;;;;;;8.70;99.90;;;;;;5017506;28;19929;-86
2021/11/13 11:48:58;;;;;;;;;;;8.70;99.90;;;;;;5015742;28;19962;-86
2021/11/13 11:51:24;;;;;;;;;;;8.80;99.90;;;;;;5017149;28;19905;-86
2021/11/13 11:53:50;;;;;;;;;;;8.80;99.90;;;;;;5015616;28;20380;-86
2021/11/13 11:56:18;;;;;;;;;;;8.90;99.90;;;;;;5016649;28;19931;-86
2021/11/13 11:58:45;;;;;;;;;;;8.90;99.90;;;;;;5015529;28;19995;-86
2021/11/13 12:01:30;;;;;;;;;;;9.00;99.90;;;;;;5015797;28;19913;-85
2021/11/13 12:04:15;;;;;;;;;;;9.00;99.90;;;;;;5015481;28;20032;-85
2021/11/13 12:06:45;;;;;;;;;;;9.00;99.90;;;;;;5015305;28;20372;-86
2021/11/13 12:09:11;;;;;;;;;;;9.00;99.90;;;;;;5016440;28;20290;-86
2021/11/13 12:11:37;;;;;;;;;;;9.10;99.90;;;;;;5017171;28;20400;-86
2021/11/13 12:14:23;;;;;;;;;;;9.10;99.90;;;;;;5015862;28;19905;-86
2021/11/13 12:16:49;;;;;;;;;;;9.10;99.90;;;;;;5015433;28;19909;-86
2021/11/13 12:19:15;;;;;;;;;;;9.30;99.90;;;;;;5017174;28;19912;-86
2021/11/13 12:21:52;;;;;;;;;;;9.30;99.90;;;;;;5015638;28;19925;-86
2021/11/13 12:24:18;;;;;;;;;;;9.40;99.90;;;;;;5015455;28;19912;-86
2021/11/13 12:26:57;;;;;;;;;;;9.50;99.90;;;;;;5015449;28;20366;-86
2021/11/13 12:29:23;;;;;;;;;;;9.60;99.90;;;;;;5016071;28;19906;-86
2021/11/13 12:31:50;;;;;;;;;;;9.60;99.90;;;;;;5015314;28;19911;-86
2021/11/13 12:34:18;;;;;;;;;;;9.70;99.90;;;;;;5015548;28;19905;-86
2021/11/13 12:37:04;;;;;;;;;;;9.70;99.90;;;;;;5015278;28;19909;-87
2021/11/13 12:39:31;;;;;;;;;;;9.70;99.90;;;;;;5017308;28;19910;-87
2021/11/13 12:41:59;;;;;;;;;;;9.70;99.90;;;;;;5016410;28;19905;-87
2021/11/13 12:44:24;;;;;;;;;;;9.70;99.90;;;;;;5016816;28;19959;-86
2021/11/13 12:46:51;;;;;;;;;;;9.80;99.90;;;;;;5016346;28;19910;-86
2021/11/13 12:49:23;;;;;;;;;;;9.80;99.90;;;;;;5016046;28;20250;-86
2021/11/13 12:51:52;;;;;;;;;;;9.90;99.90;;;;;;5015956;28;19906;-86
2021/11/13 12:54:19;;;;;;;;;;;9.90;99.90;;;;;;5015519;28;20374;-87
2021/11/13 12:56:46;;;;;;;;;;;9.90;99.90;;;;;;5015189;28;19909;-86
2021/11/13 12:59:15;;;;;;;;;;;9.80;99.90;;;;;;5015809;28;20285;-87
2021/11/13 13:01:52;;;;;;;;;;;9.80;99.90;;;;;;5015512;28;19997;-87
2021/11/13 13:04:18;;;;;;;;;;;9.80;99.90;;;;;;5015131;28;19905;-87
2021/11/13 13:06:44;;;;;;;;;;;9.70;99.90;;;;;;5014988;28;20365;-87
2021/11/13 13:09:10;;;;;;;;;;;9.70;99.90;;;;;;5015253;28;19916;-87
2021/11/13 13:11:48;;;;;;;;;;;9.70;99.90;;;;;;5021452;28;19905;-87
2021/11/13 13:14:24;;;;;;;;;;;9.60;99.90;;;;;;5017863;28;19977;-87
2021/11/13 13:16:50;;;;;;;;;;;9.60;99.90;;;;;;5016906;28;19913;-86
2021/11/13 13:19:17;;;;;;;;;;;9.60;99.90;;;;;;5033623;28;19928;-84
2021/11/13 13:21:55;;;;;;;;;;;9.50;99.90;;;;;;5046418;28;19924;-85
2021/11/13 13:24:21;;;;;;;;;;;9.50;99.90;;;;;;5020179;28;19905;-85
2021/11/13 13:26:48;;;;;;;;;;;9.50;99.90;;;;;;5019616;28;19912;-85
2021/11/13 13:29:14;;;;;;;;;;;9.40;99.90;;;;;;5017856;28;19999;-86
2021/11/13 13:31:40;;;;;;;;;;;9.40;99.90;;;;;;5017301;28;20276;-86
2021/11/13 13:34:06;;;;;;;;;;;9.40;99.90;;;;;;5019091;28;19988;-86
2021/11/13 13:36:37;;;;;;;;;;;9.40;99.90;;;;;;5035114;28;20289;-86
2021/11/13 13:39:09;;;;;;;;;;;9.40;99.90;;;;;;5035351;28;19905;-86
2021/11/13 13:41:34;;;;;;;;;;;9.40;99.90;;;;;;5017517;28;19913;-85
2021/11/13 13:44:01;;;;;;;;;;;9.50;99.90;;;;;;5016609;28;19911;-85
2021/11/13 13:46:31;;;;;;;;;;;9.60;99.90;;;;;;5017252;28;20288;-86
2021/11/13 13:49:00;;;;;;;;;;;9.60;99.90;;;;;;5017118;28;19912;-86
2021/11/13 13:51:30;;;;;;;;;;;9.70;99.90;;;;;;5016911;28;19912;-84
2021/11/13 13:53:56;;;;;;;;;;;9.80;99.90;;;;;;5016611;28;19913;-85
2021/11/13 13:56:27;;;;;;;;;;;9.80;99.90;;;;;;5018215;28;19909;-85
2021/11/13 13:58:53;;;;;;;;;;;9.80;99.90;;;;;;5016485;28;19995;-87
2021/11/13 14:01:19;;;;;;;;;;;9.80;99.90;;;;;;5034117;28;19905;-86
2021/11/13 14:03:45;;;;;;;;;;;9.70;99.90;;;;;;5016446;28;19909;-86
2021/11/13 14:06:10;;;;;;;;;;;9.70;99.90;;;;;;5016412;28;19948;-85
2021/11/13 14:08:44;;;;;;;;;;;9.70;99.90;;;;;;5016366;28;19988;-86
2021/11/13 14:11:09;;;;;;;;;;;9.70;99.90;;;;;;5016405;28;20369;-85
2021/11/13 14:13:36;;;;;;;;;;;9.70;99.90;;;;;;5016151;28;19967;-86
2021/11/13 14:16:03;;;;;;;;;;;9.80;99.90;;;;;;5033984;28;19924;-85
2021/11/13 14:18:30;;;;;;;;;;;10.00;99.90;;;;;;5016257;28;19905;-86
2021/11/13 14:20:56;;;;;;;;;;;10.00;99.90;;;;;;5015861;28;19916;-86
2021/11/13 14:23:23;;;;;;;;;;;10.00;99.90;;;;;;5034083;28;19905;-86
2021/11/13 14:25:58;;;;;;;;;;;9.90;99.90;;;;;;5016160;28;20307;-85
2021/11/13 14:28:39;;;;;;;;;;;9.90;99.90;;;;;;5016020;28;19909;-85
2021/11/13 14:31:06;;;;;;;;;;;10.00;99.90;;;;;;5015870;28;19905;-85